Terminal Aerodrome Forecast
Issued by NWS

Home | Current Version | Previous Version | Text Only | Print | Product List | Glossary On
Versions: 1 2 3 4 5 6 7 8 9 10 11 12 13
000
FTUS42 KTAE 211700
TAFVLD
TAF
KVLD 211720Z 2118/2218 03011KT P6SM SKC
     FM220100 08003KT P6SM SKC
     FM221500 09010G15KT P6SM SCT040 SCT100 BKN250=

USA.gov is the U.S. government's official web portal to all federal, state and local government web resources and services.